sensor_id;sensor_type;location;lat;lon;timestamp;P1;durP1;ratioP1;P2;durP2;ratioP2
13051;SDS011;6592;47.484;9.726;2023-02-15T00:00:09;26.33;;;9.67;;
13051;SDS011;6592;47.484;9.726;2023-02-15T00:02:38;21.20;;;7.33;;
13051;SDS011;6592;47.484;9.726;2023-02-15T00:05:07;30.13;;;9.33;;
13051;SDS011;6592;47.484;9.726;2023-02-15T00:07:37;25.73;;;9.10;;
13051;SDS011;6592;47.484;9.726;2023-02-15T00:10:05;27.30;;;8.73;;
13051;SDS011;6592;47.484;9.726;2023-02-15T00:12:34;37.67;;;9.43;;
13051;SDS011;6592;47.484;9.726;2023-02-15T00:15:03;24.33;;;9.37;;
13051;SDS011;6592;47.484;9.726;2023-02-15T00:17:31;31.33;;;8.33;;
13051;SDS011;6592;47.484;9.726;2023-02-15T00:20:00;28.00;;;8.47;;
13051;SDS011;6592;47.484;9.726;2023-02-15T00:22:28;19.33;;;7.53;;
13051;SDS011;6592;47.484;9.726;2023-02-15T00:24:58;22.83;;;8.37;;
13051;SDS011;6592;47.484;9.726;2023-02-15T00:27:26;18.97;;;7.43;;
13051;SDS011;6592;47.484;9.726;2023-02-15T00:29:54;24.87;;;6.70;;
13051;SDS011;6592;47.484;9.726;2023-02-15T00:32:22;18.30;;;7.30;;
13051;SDS011;6592;47.484;9.726;2023-02-15T00:34:50;22.30;;;7.77;;
13051;SDS011;6592;47.484;9.726;2023-02-15T00:37:19;25.90;;;7.80;;
13051;SDS011;6592;47.484;9.726;2023-02-15T00:39:47;24.63;;;7.30;;
13051;SDS011;6592;47.484;9.726;2023-02-15T00:42:17;22.97;;;7.73;;
13051;SDS011;6592;47.484;9.726;2023-02-15T00:44:45;31.27;;;8.23;;
13051;SDS011;6592;47.484;9.726;2023-02-15T00:47:13;27.20;;;7.40;;
13051;SDS011;6592;47.484;9.726;2023-02-15T00:49:41;19.13;;;7.07;;
13051;SDS011;6592;47.484;9.726;2023-02-15T00:52:10;19.83;;;7.53;;
13051;SDS011;6592;47.484;9.726;2023-02-15T00:54:38;22.03;;;6.67;;
13051;SDS011;6592;47.484;9.726;2023-02-15T00:57:09;21.20;;;7.47;;
13051;SDS011;6592;47.484;9.726;2023-02-15T00:59:38;21.35;;;7.55;;
13051;SDS011;6592;47.484;9.726;2023-02-15T01:02:06;18.90;;;6.90;;
13051;SDS011;6592;47.484;9.726;2023-02-15T01:04:35;16.53;;;6.60;;
13051;SDS011;6592;47.484;9.726;2023-02-15T01:07:03;25.03;;;7.53;;
13051;SDS011;6592;47.484;9.726;2023-02-15T01:09:31;17.20;;;7.13;;
13051;SDS011;6592;47.484;9.726;2023-02-15T01:12:00;19.87;;;7.80;;
13051;SDS011;6592;47.484;9.726;2023-02-15T01:14:28;17.70;;;5.97;;
13051;SDS011;6592;47.484;9.726;2023-02-15T01:16:57;24.03;;;7.47;;
13051;SDS011;6592;47.484;9.726;2023-02-15T01:19:26;24.87;;;6.97;;
13051;SDS011;6592;47.484;9.726;2023-02-15T01:21:54;19.40;;;7.77;;
13051;SDS011;6592;47.484;9.726;2023-02-15T01:24:22;20.20;;;7.57;;
13051;SDS011;6592;47.484;9.726;2023-02-15T01:26:50;22.50;;;7.40;;
13051;SDS011;6592;47.484;9.726;2023-02-15T01:29:19;24.77;;;7.10;;
13051;SDS011;6592;47.484;9.726;2023-02-15T01:31:47;30.93;;;8.47;;
13051;SDS011;6592;47.484;9.726;2023-02-15T01:34:17;25.43;;;7.77;;
13051;SDS011;6592;47.484;9.726;2023-02-15T01:36:45;25.40;;;7.93;;
13051;SDS011;6592;47.484;9.726;2023-02-15T01:39:14;23.50;;;8.27;;
13051;SDS011;6592;47.484;9.726;2023-02-15T01:41:42;26.47;;;7.77;;
13051;SDS011;6592;47.484;9.726;2023-02-15T01:47:15;25.67;;;8.43;;
13051;SDS011;6592;47.484;9.726;2023-02-15T01:49:47;25.20;;;7.63;;
13051;SDS011;6592;47.484;9.726;2023-02-15T01:52:17;19.67;;;7.47;;
13051;SDS011;6592;47.484;9.726;2023-02-15T01:54:46;22.63;;;7.77;;
13051;SDS011;6592;47.484;9.726;2023-02-15T01:57:16;20.73;;;8.17;;
13051;SDS011;6592;47.484;9.726;2023-02-15T01:59:47;35.75;;;7.55;;
13051;SDS011;6592;47.484;9.726;2023-02-15T02:02:19;30.03;;;8.20;;
13051;SDS011;6592;47.484;9.726;2023-02-15T02:04:52;23.35;;;7.95;;
13051;SDS011;6592;47.484;9.726;2023-02-15T02:07:23;25.83;;;8.20;;
13051;SDS011;6592;47.484;9.726;2023-02-15T02:09:54;20.93;;;7.37;;
13051;SDS011;6592;47.484;9.726;2023-02-15T02:12:22;21.00;;;7.63;;
13051;SDS011;6592;47.484;9.726;2023-02-15T02:14:52;21.13;;;8.23;;
13051;SDS011;6592;47.484;9.726;2023-02-15T02:17:22;26.10;;;8.40;;
13051;SDS011;6592;47.484;9.726;2023-02-15T02:20:08;24.43;;;8.10;;
13051;SDS011;6592;47.484;9.726;2023-02-15T02:23:03;19.77;;;8.63;;
13051;SDS011;6592;47.484;9.726;2023-02-15T02:26:10;16.23;;;6.73;;
13051;SDS011;6592;47.484;9.726;2023-02-15T02:32:07;18.97;;;7.03;;
13051;SDS011;6592;47.484;9.726;2023-02-15T02:34:58;21.97;;;7.30;;
13051;SDS011;6592;47.484;9.726;2023-02-15T02:37:30;22.20;;;7.83;;
13051;SDS011;6592;47.484;9.726;2023-02-15T02:40:06;19.83;;;7.20;;
13051;SDS011;6592;47.484;9.726;2023-02-15T02:42:41;20.33;;;7.67;;
13051;SDS011;6592;47.484;9.726;2023-02-15T02:45:15;19.30;;;6.97;;
13051;SDS011;6592;47.484;9.726;2023-02-15T02:47:48;18.37;;;7.67;;
13051;SDS011;6592;47.484;9.726;2023-02-15T02:50:23;19.03;;;7.43;;
13051;SDS011;6592;47.484;9.726;2023-02-15T02:52:55;20.87;;;7.20;;
13051;SDS011;6592;47.484;9.726;2023-02-15T02:55:26;22.53;;;7.93;;
13051;SDS011;6592;47.484;9.726;2023-02-15T02:57:59;16.73;;;7.00;;
13051;SDS011;6592;47.484;9.726;2023-02-15T03:00:32;18.07;;;6.73;;
13051;SDS011;6592;47.484;9.726;2023-02-15T03:03:06;18.23;;;7.40;;
13051;SDS011;6592;47.484;9.726;2023-02-15T03:05:44;19.43;;;7.23;;
13051;SDS011;6592;47.484;9.726;2023-02-15T03:08:14;22.37;;;8.30;;
13051;SDS011;6592;47.484;9.726;2023-02-15T03:10:48;27.20;;;9.57;;
13051;SDS011;6592;47.484;9.726;2023-02-15T03:13:20;22.67;;;8.30;;
13051;SDS011;6592;47.484;9.726;2023-02-15T03:15:49;28.23;;;7.73;;
13051;SDS011;6592;47.484;9.726;2023-02-15T03:18:37;28.00;;;8.00;;
13051;SDS011;6592;47.484;9.726;2023-02-15T03:21:11;27.07;;;8.07;;
13051;SDS011;6592;47.484;9.726;2023-02-15T03:23:50;24.70;;;8.37;;
13051;SDS011;6592;47.484;9.726;2023-02-15T03:26:23;43.20;;;12.67;;
13051;SDS011;6592;47.484;9.726;2023-02-15T03:28:54;23.70;;;8.73;;
13051;SDS011;6592;47.484;9.726;2023-02-15T03:31:25;21.25;;;7.50;;
13051;SDS011;6592;47.484;9.726;2023-02-15T03:36:28;17.90;;;6.77;;
13051;SDS011;6592;47.484;9.726;2023-02-15T03:39:02;21.97;;;8.50;;
13051;SDS011;6592;47.484;9.726;2023-02-15T03:41:37;26.27;;;7.90;;
13051;SDS011;6592;47.484;9.726;2023-02-15T03:44:11;21.67;;;7.27;;
13051;SDS011;6592;47.484;9.726;2023-02-15T03:46:44;27.90;;;7.97;;
13051;SDS011;6592;47.484;9.726;2023-02-15T03:49:20;23.07;;;8.00;;
13051;SDS011;6592;47.484;9.726;2023-02-15T03:51:53;24.67;;;7.53;;
13051;SDS011;6592;47.484;9.726;2023-02-15T03:54:24;19.10;;;7.03;;
13051;SDS011;6592;47.484;9.726;2023-02-15T03:57:10;19.93;;;6.87;;
13051;SDS011;6592;47.484;9.726;2023-02-15T03:59:59;21.13;;;7.83;;
13051;SDS011;6592;47.484;9.726;2023-02-15T04:02:50;26.50;;;8.40;;
13051;SDS011;6592;47.484;9.726;2023-02-15T04:05:35;17.43;;;6.57;;
13051;SDS011;6592;47.484;9.726;2023-02-15T04:08:05;21.70;;;8.47;;
13051;SDS011;6592;47.484;9.726;2023-02-15T04:10:34;30.50;;;7.83;;
13051;SDS011;6592;47.484;9.726;2023-02-15T04:13:21;25.80;;;9.10;;
13051;SDS011;6592;47.484;9.726;2023-02-15T04:15:50;26.60;;;9.37;;
13051;SDS011;6592;47.484;9.726;2023-02-15T04:18:31;30.33;;;9.70;;
13051;SDS011;6592;47.484;9.726;2023-02-15T04:21:18;26.43;;;9.80;;
13051;SDS011;6592;47.484;9.726;2023-02-15T04:24:07;29.80;;;10.77;;
13051;SDS011;6592;47.484;9.726;2023-02-15T04:26:54;28.70;;;9.90;;
13051;SDS011;6592;47.484;9.726;2023-02-15T04:29:23;30.10;;;10.13;;
13051;SDS011;6592;47.484;9.726;2023-02-15T04:31:53;20.97;;;7.60;;
13051;SDS011;6592;47.484;9.726;2023-02-15T04:34:22;27.10;;;7.43;;
13051;SDS011;6592;47.484;9.726;2023-02-15T04:36:51;28.13;;;8.60;;
13051;SDS011;6592;47.484;9.726;2023-02-15T04:39:20;21.30;;;7.93;;
13051;SDS011;6592;47.484;9.726;2023-02-15T04:41:49;34.63;;;8.13;;
13051;SDS011;6592;47.484;9.726;2023-02-15T04:44:17;28.50;;;7.83;;
13051;SDS011;6592;47.484;9.726;2023-02-15T04:46:45;22.70;;;7.83;;
13051;SDS011;6592;47.484;9.726;2023-02-15T04:49:13;36.40;;;8.57;;
13051;SDS011;6592;47.484;9.726;2023-02-15T04:51:42;28.97;;;6.93;;
13051;SDS011;6592;47.484;9.726;2023-02-15T04:54:10;18.60;;;6.90;;
13051;SDS011;6592;47.484;9.726;2023-02-15T04:56:40;22.13;;;7.03;;
13051;SDS011;6592;47.484;9.726;2023-02-15T04:59:09;20.83;;;7.67;;
13051;SDS011;6592;47.484;9.726;2023-02-15T05:01:37;31.20;;;7.50;;
13051;SDS011;6592;47.484;9.726;2023-02-15T05:04:06;34.10;;;7.93;;
13051;SDS011;6592;47.484;9.726;2023-02-15T05:06:35;19.27;;;7.33;;
13051;SDS011;6592;47.484;9.726;2023-02-15T05:09:04;20.50;;;7.33;;
13051;SDS011;6592;47.484;9.726;2023-02-15T05:11:32;19.20;;;7.23;;
13051;SDS011;6592;47.484;9.726;2023-02-15T05:14:02;22.07;;;7.53;;
13051;SDS011;6592;47.484;9.726;2023-02-15T05:16:30;23.63;;;6.63;;
13051;SDS011;6592;47.484;9.726;2023-02-15T05:18:59;23.50;;;7.47;;
13051;SDS011;6592;47.484;9.726;2023-02-15T05:21:27;20.80;;;7.30;;
13051;SDS011;6592;47.484;9.726;2023-02-15T05:23:56;23.93;;;7.53;;
13051;SDS011;6592;47.484;9.726;2023-02-15T05:26:24;20.30;;;7.00;;
13051;SDS011;6592;47.484;9.726;2023-02-15T05:29:12;21.87;;;6.63;;
13051;SDS011;6592;47.484;9.726;2023-02-15T05:31:40;18.57;;;6.30;;
13051;SDS011;6592;47.484;9.726;2023-02-15T05:34:13;23.33;;;7.87;;
13051;SDS011;6592;47.484;9.726;2023-02-15T05:36:42;20.20;;;8.00;;
13051;SDS011;6592;47.484;9.726;2023-02-15T05:39:10;16.37;;;6.70;;
13051;SDS011;6592;47.484;9.726;2023-02-15T05:41:38;25.70;;;8.60;;
13051;SDS011;6592;47.484;9.726;2023-02-15T05:44:06;20.80;;;6.33;;
13051;SDS011;6592;47.484;9.726;2023-02-15T05:46:36;19.07;;;5.63;;
13051;SDS011;6592;47.484;9.726;2023-02-15T05:49:04;16.03;;;5.97;;
13051;SDS011;6592;47.484;9.726;2023-02-15T05:51:33;22.53;;;6.67;;
13051;SDS011;6592;47.484;9.726;2023-02-15T05:54:01;21.73;;;7.93;;
13051;SDS011;6592;47.484;9.726;2023-02-15T05:56:30;17.13;;;6.30;;
13051;SDS011;6592;47.484;9.726;2023-02-15T05:58:58;15.73;;;6.00;;
13051;SDS011;6592;47.484;9.726;2023-02-15T06:01:27;17.67;;;5.67;;
13051;SDS011;6592;47.484;9.726;2023-02-15T06:03:57;17.87;;;5.80;;
13051;SDS011;6592;47.484;9.726;2023-02-15T06:06:25;19.90;;;6.67;;
13051;SDS011;6592;47.484;9.726;2023-02-15T06:08:53;20.83;;;6.63;;
13051;SDS011;6592;47.484;9.726;2023-02-15T06:11:21;21.87;;;6.80;;
13051;SDS011;6592;47.484;9.726;2023-02-15T06:13:50;16.00;;;6.17;;
13051;SDS011;6592;47.484;9.726;2023-02-15T06:16:18;16.90;;;5.70;;
13051;SDS011;6592;47.484;9.726;2023-02-15T06:18:47;20.53;;;7.33;;
13051;SDS011;6592;47.484;9.726;2023-02-15T06:21:19;20.23;;;6.30;;
13051;SDS011;6592;47.484;9.726;2023-02-15T06:23:47;31.70;;;5.83;;
13051;SDS011;6592;47.484;9.726;2023-02-15T06:26:16;15.60;;;5.50;;
13051;SDS011;6592;47.484;9.726;2023-02-15T06:28:44;18.53;;;5.30;;
13051;SDS011;6592;47.484;9.726;2023-02-15T06:31:12;10.67;;;4.87;;
13051;SDS011;6592;47.484;9.726;2023-02-15T06:33:41;18.57;;;5.97;;
13051;SDS011;6592;47.484;9.726;2023-02-15T06:36:10;12.83;;;5.20;;
13051;SDS011;6592;47.484;9.726;2023-02-15T06:38:40;16.63;;;6.20;;
13051;SDS011;6592;47.484;9.726;2023-02-15T06:41:08;19.10;;;6.73;;
13051;SDS011;6592;47.484;9.726;2023-02-15T06:43:36;16.10;;;6.47;;
13051;SDS011;6592;47.484;9.726;2023-02-15T06:46:06;15.60;;;5.57;;
13051;SDS011;6592;47.484;9.726;2023-02-15T06:48:34;16.70;;;6.30;;
13051;SDS011;6592;47.484;9.726;2023-02-15T06:51:02;17.37;;;6.60;;
13051;SDS011;6592;47.484;9.726;2023-02-15T06:53:31;17.23;;;6.80;;
13051;SDS011;6592;47.484;9.726;2023-02-15T06:56:04;17.00;;;6.40;;
13051;SDS011;6592;47.484;9.726;2023-02-15T06:58:35;17.53;;;7.00;;
13051;SDS011;6592;47.484;9.726;2023-02-15T07:01:04;17.73;;;6.70;;
13051;SDS011;6592;47.484;9.726;2023-02-15T07:03:33;15.40;;;6.87;;
13051;SDS011;6592;47.484;9.726;2023-02-15T07:06:03;18.17;;;6.97;;
13051;SDS011;6592;47.484;9.726;2023-02-15T07:08:34;14.10;;;5.97;;
13051;SDS011;6592;47.484;9.726;2023-02-15T07:11:05;14.23;;;5.57;;
13051;SDS011;6592;47.484;9.726;2023-02-15T07:13:51;15.93;;;6.00;;
13051;SDS011;6592;47.484;9.726;2023-02-15T07:16:20;15.90;;;5.67;;
13051;SDS011;6592;47.484;9.726;2023-02-15T07:18:48;15.13;;;5.83;;
13051;SDS011;6592;47.484;9.726;2023-02-15T07:21:17;18.00;;;6.00;;
13051;SDS011;6592;47.484;9.726;2023-02-15T07:23:45;19.13;;;6.90;;
13051;SDS011;6592;47.484;9.726;2023-02-15T07:26:15;18.67;;;6.33;;
13051;SDS011;6592;47.484;9.726;2023-02-15T07:28:43;18.20;;;6.23;;
13051;SDS011;6592;47.484;9.726;2023-02-15T07:31:12;14.97;;;5.87;;
13051;SDS011;6592;47.484;9.726;2023-02-15T07:33:40;19.53;;;6.20;;
13051;SDS011;6592;47.484;9.726;2023-02-15T07:36:08;12.67;;;5.50;;
13051;SDS011;6592;47.484;9.726;2023-02-15T07:38:39;17.47;;;6.33;;
13051;SDS011;6592;47.484;9.726;2023-02-15T07:41:09;14.37;;;5.57;;
13051;SDS011;6592;47.484;9.726;2023-02-15T07:43:40;14.13;;;5.97;;
13051;SDS011;6592;47.484;9.726;2023-02-15T07:46:10;13.13;;;5.85;;
13051;SDS011;6592;47.484;9.726;2023-02-15T07:48:40;13.17;;;5.47;;
13051;SDS011;6592;47.484;9.726;2023-02-15T07:51:10;14.90;;;5.40;;
13051;SDS011;6592;47.484;9.726;2023-02-15T07:53:39;22.73;;;7.00;;
13051;SDS011;6592;47.484;9.726;2023-02-15T07:56:09;20.33;;;7.17;;
13051;SDS011;6592;47.484;9.726;2023-02-15T07:58:40;19.27;;;6.10;;
13051;SDS011;6592;47.484;9.726;2023-02-15T08:01:23;16.90;;;6.30;;
13051;SDS011;6592;47.484;9.726;2023-02-15T08:03:52;16.60;;;6.37;;
13051;SDS011;6592;47.484;9.726;2023-02-15T08:06:21;17.60;;;6.70;;
13051;SDS011;6592;47.484;9.726;2023-02-15T08:08:51;22.27;;;6.60;;
13051;SDS011;6592;47.484;9.726;2023-02-15T08:11:20;20.30;;;6.57;;
13051;SDS011;6592;47.484;9.726;2023-02-15T08:14:05;22.27;;;6.37;;
13051;SDS011;6592;47.484;9.726;2023-02-15T08:16:35;14.13;;;5.43;;
13051;SDS011;6592;47.484;9.726;2023-02-15T08:19:05;15.67;;;6.37;;
13051;SDS011;6592;47.484;9.726;2023-02-15T08:21:35;22.67;;;6.53;;
13051;SDS011;6592;47.484;9.726;2023-02-15T08:24:05;17.40;;;6.07;;
13051;SDS011;6592;47.484;9.726;2023-02-15T08:26:35;18.87;;;6.27;;
13051;SDS011;6592;47.484;9.726;2023-02-15T08:29:09;19.27;;;6.10;;
13051;SDS011;6592;47.484;9.726;2023-02-15T08:31:37;18.53;;;6.43;;
13051;SDS011;6592;47.484;9.726;2023-02-15T08:34:08;16.50;;;6.10;;
13051;SDS011;6592;47.484;9.726;2023-02-15T08:36:37;17.70;;;7.57;;
13051;SDS011;6592;47.484;9.726;2023-02-15T08:39:05;22.50;;;6.57;;
13051;SDS011;6592;47.484;9.726;2023-02-15T08:41:34;20.03;;;7.43;;
13051;SDS011;6592;47.484;9.726;2023-02-15T08:44:04;19.47;;;6.87;;
13051;SDS011;6592;47.484;9.726;2023-02-15T08:46:35;20.13;;;6.43;;
13051;SDS011;6592;47.484;9.726;2023-02-15T08:49:05;15.90;;;5.87;;
13051;SDS011;6592;47.484;9.726;2023-02-15T08:51:34;16.20;;;5.87;;
13051;SDS011;6592;47.484;9.726;2023-02-15T08:54:05;16.50;;;6.67;;
13051;SDS011;6592;47.484;9.726;2023-02-15T08:56:35;15.80;;;6.30;;
13051;SDS011;6592;47.484;9.726;2023-02-15T08:59:05;16.07;;;6.70;;
13051;SDS011;6592;47.484;9.726;2023-02-15T09:01:36;15.03;;;5.87;;
13051;SDS011;6592;47.484;9.726;2023-02-15T09:04:06;14.47;;;6.17;;
13051;SDS011;6592;47.484;9.726;2023-02-15T09:06:36;19.80;;;7.13;;
13051;SDS011;6592;47.484;9.726;2023-02-15T09:09:05;21.00;;;7.33;;
13051;SDS011;6592;47.484;9.726;2023-02-15T09:11:34;18.87;;;7.20;;
13051;SDS011;6592;47.484;9.726;2023-02-15T09:14:05;18.73;;;7.70;;
13051;SDS011;6592;47.484;9.726;2023-02-15T09:16:41;20.13;;;7.83;;
13051;SDS011;6592;47.484;9.726;2023-02-15T09:19:12;21.00;;;8.00;;
13051;SDS011;6592;47.484;9.726;2023-02-15T09:21:41;21.80;;;7.87;;
13051;SDS011;6592;47.484;9.726;2023-02-15T09:24:10;22.50;;;8.17;;
13051;SDS011;6592;47.484;9.726;2023-02-15T09:26:40;20.93;;;7.60;;
13051;SDS011;6592;47.484;9.726;2023-02-15T09:29:10;19.93;;;8.17;;
13051;SDS011;6592;47.484;9.726;2023-02-15T09:31:41;18.50;;;7.27;;
13051;SDS011;6592;47.484;9.726;2023-02-15T09:36:39;17.53;;;7.47;;
13051;SDS011;6592;47.484;9.726;2023-02-15T09:39:09;20.37;;;8.00;;
13051;SDS011;6592;47.484;9.726;2023-02-15T09:47:50;17.23;;;6.93;;
13051;SDS011;6592;47.484;9.726;2023-02-15T09:50:37;23.38;;;8.23;;
13051;SDS011;6592;47.484;9.726;2023-02-15T09:53:20;21.97;;;7.73;;
13051;SDS011;6592;47.484;9.726;2023-02-15T09:56:00;21.90;;;8.53;;
13051;SDS011;6592;47.484;9.726;2023-02-15T09:58:36;18.80;;;7.93;;
13051;SDS011;6592;47.484;9.726;2023-02-15T10:01:15;24.80;;;8.77;;
13051;SDS011;6592;47.484;9.726;2023-02-15T10:03:56;20.40;;;8.32;;
13051;SDS011;6592;47.484;9.726;2023-02-15T10:06:38;18.35;;;7.78;;
13051;SDS011;6592;47.484;9.726;2023-02-15T10:09:18;18.42;;;6.95;;
13051;SDS011;6592;47.484;9.726;2023-02-15T10:11:58;21.63;;;8.40;;
13051;SDS011;6592;47.484;9.726;2023-02-15T10:14:39;21.75;;;7.95;;
13051;SDS011;6592;47.484;9.726;2023-02-15T10:17:21;18.52;;;7.60;;
13051;SDS011;6592;47.484;9.726;2023-02-15T10:20:04;22.10;;;7.38;;
13051;SDS011;6592;47.484;9.726;2023-02-15T10:22:47;18.10;;;7.55;;
13051;SDS011;6592;47.484;9.726;2023-02-15T10:25:31;19.08;;;7.95;;
13051;SDS011;6592;47.484;9.726;2023-02-15T10:28:06;22.15;;;8.65;;
13051;SDS011;6592;47.484;9.726;2023-02-15T10:30:45;20.10;;;8.48;;
13051;SDS011;6592;47.484;9.726;2023-02-15T10:33:23;19.75;;;7.82;;
13051;SDS011;6592;47.484;9.726;2023-02-15T10:36:06;23.08;;;9.05;;
13051;SDS011;6592;47.484;9.726;2023-02-15T10:41:17;21.67;;;8.15;;
13051;SDS011;6592;47.484;9.726;2023-02-15T10:44:00;19.92;;;9.23;;
13051;SDS011;6592;47.484;9.726;2023-02-15T10:46:48;24.77;;;9.32;;
13051;SDS011;6592;47.484;9.726;2023-02-15T10:49:36;18.52;;;9.07;;
13051;SDS011;6592;47.484;9.726;2023-02-15T10:52:24;21.13;;;9.25;;
13051;SDS011;6592;47.484;9.726;2023-02-15T10:55:02;20.55;;;9.23;;
13051;SDS011;6592;47.484;9.726;2023-02-15T10:57:41;16.63;;;8.70;;
13051;SDS011;6592;47.484;9.726;2023-02-15T11:00:16;17.25;;;9.27;;
13051;SDS011;6592;47.484;9.726;2023-02-15T11:02:54;18.00;;;9.40;;
13051;SDS011;6592;47.484;9.726;2023-02-15T11:05:45;18.75;;;9.38;;
13051;SDS011;6592;47.484;9.726;2023-02-15T11:08:26;20.45;;;10.93;;
13051;SDS011;6592;47.484;9.726;2023-02-15T11:10:59;16.33;;;9.05;;
13051;SDS011;6592;47.484;9.726;2023-02-15T11:13:33;17.15;;;9.65;;
13051;SDS011;6592;47.484;9.726;2023-02-15T11:16:04;14.93;;;8.70;;
13051;SDS011;6592;47.484;9.726;2023-02-15T11:21:07;16.02;;;9.73;;
13051;SDS011;6592;47.484;9.726;2023-02-15T11:23:43;14.77;;;9.30;;
13051;SDS011;6592;47.484;9.726;2023-02-15T11:26:13;18.25;;;9.40;;
13051;SDS011;6592;47.484;9.726;2023-02-15T11:28:45;14.95;;;8.70;;
13051;SDS011;6592;47.484;9.726;2023-02-15T11:31:17;15.32;;;9.02;;
13051;SDS011;6592;47.484;9.726;2023-02-15T11:33:48;16.25;;;9.52;;
13051;SDS011;6592;47.484;9.726;2023-02-15T11:36:20;16.23;;;10.10;;
13051;SDS011;6592;47.484;9.726;2023-02-15T11:38:55;16.15;;;9.55;;
13051;SDS011;6592;47.484;9.726;2023-02-15T11:41:28;17.55;;;9.65;;
13051;SDS011;6592;47.484;9.726;2023-02-15T11:44:05;18.35;;;9.63;;
13051;SDS011;6592;47.484;9.726;2023-02-15T11:46:39;17.50;;;9.52;;
13051;SDS011;6592;47.484;9.726;2023-02-15T11:49:10;14.05;;;8.65;;
13051;SDS011;6592;47.484;9.726;2023-02-15T11:51:49;16.42;;;9.52;;
13051;SDS011;6592;47.484;9.726;2023-02-15T11:54:23;15.00;;;9.65;;
13051;SDS011;6592;47.484;9.726;2023-02-15T11:56:54;15.13;;;9.27;;
13051;SDS011;6592;47.484;9.726;2023-02-15T11:59:27;15.85;;;9.18;;
13051;SDS011;6592;47.484;9.726;2023-02-15T12:01:58;16.00;;;9.02;;
13051;SDS011;6592;47.484;9.726;2023-02-15T12:04:28;15.13;;;8.95;;
13051;SDS011;6592;47.484;9.726;2023-02-15T12:07:02;12.85;;;8.55;;
13051;SDS011;6592;47.484;9.726;2023-02-15T12:09:41;14.05;;;8.77;;
13051;SDS011;6592;47.484;9.726;2023-02-15T12:12:23;14.77;;;8.70;;
13051;SDS011;6592;47.484;9.726;2023-02-15T12:14:53;14.05;;;8.98;;
13051;SDS011;6592;47.484;9.726;2023-02-15T12:17:23;14.05;;;8.80;;
13051;SDS011;6592;47.484;9.726;2023-02-15T12:19:54;14.40;;;9.00;;
13051;SDS011;6592;47.484;9.726;2023-02-15T12:22:25;15.57;;;9.20;;
13051;SDS011;6592;47.484;9.726;2023-02-15T12:24:58;15.52;;;9.63;;
13051;SDS011;6592;47.484;9.726;2023-02-15T12:27:29;14.20;;;8.77;;
13051;SDS011;6592;47.484;9.726;2023-02-15T12:30:00;14.02;;;8.98;;
13051;SDS011;6592;47.484;9.726;2023-02-15T12:32:34;13.43;;;8.75;;
13051;SDS011;6592;47.484;9.726;2023-02-15T12:35:14;15.73;;;9.68;;
13051;SDS011;6592;47.484;9.726;2023-02-15T12:37:58;12.95;;;8.60;;
13051;SDS011;6592;47.484;9.726;2023-02-15T12:40:32;14.15;;;9.30;;
13051;SDS011;6592;47.484;9.726;2023-02-15T12:43:02;15.10;;;9.20;;
13051;SDS011;6592;47.484;9.726;2023-02-15T12:45:35;15.35;;;9.57;;
13051;SDS011;6592;47.484;9.726;2023-02-15T12:48:09;14.32;;;8.85;;
13051;SDS011;6592;47.484;9.726;2023-02-15T12:50:43;14.80;;;9.48;;
13051;SDS011;6592;47.484;9.726;2023-02-15T12:53:20;13.57;;;8.60;;
13051;SDS011;6592;47.484;9.726;2023-02-15T12:55:53;14.23;;;9.20;;
13051;SDS011;6592;47.484;9.726;2023-02-15T12:58:23;12.98;;;9.02;;
13051;SDS011;6592;47.484;9.726;2023-02-15T13:01:03;14.25;;;9.40;;
13051;SDS011;6592;47.484;9.726;2023-02-15T13:03:40;15.18;;;9.43;;
13051;SDS011;6592;47.484;9.726;2023-02-15T13:06:25;14.85;;;8.85;;
13051;SDS011;6592;47.484;9.726;2023-02-15T13:08:55;16.15;;;9.40;;
13051;SDS011;6592;47.484;9.726;2023-02-15T13:11:29;19.17;;;10.93;;
13051;SDS011;6592;47.484;9.726;2023-02-15T13:14:01;20.05;;;10.85;;
13051;SDS011;6592;47.484;9.726;2023-02-15T13:16:32;22.00;;;12.55;;
13051;SDS011;6592;47.484;9.726;2023-02-15T13:19:03;37.42;;;19.30;;
13051;SDS011;6592;47.484;9.726;2023-02-15T13:21:35;30.30;;;15.60;;
13051;SDS011;6592;47.484;9.726;2023-02-15T13:24:10;21.77;;;11.23;;
13051;SDS011;6592;47.484;9.726;2023-02-15T13:26:46;29.45;;;14.23;;
13051;SDS011;6592;47.484;9.726;2023-02-15T13:29:17;30.00;;;13.70;;
13051;SDS011;6592;47.484;9.726;2023-02-15T13:31:50;27.08;;;13.30;;
13051;SDS011;6592;47.484;9.726;2023-02-15T13:34:20;28.33;;;12.77;;
13051;SDS011;6592;47.484;9.726;2023-02-15T13:36:52;26.00;;;13.18;;
13051;SDS011;6592;47.484;9.726;2023-02-15T13:39:28;21.23;;;11.95;;
13051;SDS011;6592;47.484;9.726;2023-02-15T13:42:10;16.95;;;10.20;;
13051;SDS011;6592;47.484;9.726;2023-02-15T13:44:54;17.05;;;9.43;;
13051;SDS011;6592;47.484;9.726;2023-02-15T13:47:37;16.83;;;9.95;;
13051;SDS011;6592;47.484;9.726;2023-02-15T13:50:23;17.50;;;10.02;;
13051;SDS011;6592;47.484;9.726;2023-02-15T13:53:07;16.33;;;9.57;;
13051;SDS011;6592;47.484;9.726;2023-02-15T13:55:47;16.05;;;9.73;;
13051;SDS011;6592;47.484;9.726;2023-02-15T14:01:13;16.85;;;10.18;;
13051;SDS011;6592;47.484;9.726;2023-02-15T14:04:07;16.83;;;9.77;;
13051;SDS011;6592;47.484;9.726;2023-02-15T14:07:09;15.95;;;9.57;;
13051;SDS011;6592;47.484;9.726;2023-02-15T14:09:51;15.52;;;9.65;;
13051;SDS011;6592;47.484;9.726;2023-02-15T14:12:40;18.67;;;10.43;;
13051;SDS011;6592;47.484;9.726;2023-02-15T14:18:16;17.33;;;9.57;;
13051;SDS011;6592;47.484;9.726;2023-02-15T14:20:58;18.42;;;9.65;;
13051;SDS011;6592;47.484;9.726;2023-02-15T14:23:38;20.70;;;10.45;;
13051;SDS011;6592;47.484;9.726;2023-02-15T14:26:18;19.60;;;10.18;;
13051;SDS011;6592;47.484;9.726;2023-02-15T14:28:55;17.88;;;9.43;;
13051;SDS011;6592;47.484;9.726;2023-02-15T14:31:34;21.88;;;9.60;;
13051;SDS011;6592;47.484;9.726;2023-02-15T14:34:08;21.52;;;10.40;;
13051;SDS011;6592;47.484;9.726;2023-02-15T14:36:45;23.83;;;10.75;;
13051;SDS011;6592;47.484;9.726;2023-02-15T14:39:17;21.90;;;9.98;;
13051;SDS011;6592;47.484;9.726;2023-02-15T14:42:15;23.80;;;10.15;;
13051;SDS011;6592;47.484;9.726;2023-02-15T14:44:53;20.23;;;8.43;;
13051;SDS011;6592;47.484;9.726;2023-02-15T14:47:31;22.13;;;9.52;;
13051;SDS011;6592;47.484;9.726;2023-02-15T14:58:59;24.15;;;10.10;;
13051;SDS011;6592;47.484;9.726;2023-02-15T15:01:51;20.38;;;9.40;;
13051;SDS011;6592;47.484;9.726;2023-02-15T15:04:25;24.00;;;9.77;;
13051;SDS011;6592;47.484;9.726;2023-02-15T15:07:03;22.48;;;9.57;;
13051;SDS011;6592;47.484;9.726;2023-02-15T15:09:40;22.77;;;8.98;;
13051;SDS011;6592;47.484;9.726;2023-02-15T15:12:37;23.27;;;9.30;;
13051;SDS011;6592;47.484;9.726;2023-02-15T15:15:10;24.63;;;9.15;;
13051;SDS011;6592;47.484;9.726;2023-02-15T15:17:54;27.02;;;10.20;;
13051;SDS011;6592;47.484;9.726;2023-02-15T15:20:41;23.25;;;9.52;;
13051;SDS011;6592;47.484;9.726;2023-02-15T15:26:22;24.77;;;9.68;;
13051;SDS011;6592;47.484;9.726;2023-02-15T15:28:54;25.95;;;10.18;;
13051;SDS011;6592;47.484;9.726;2023-02-15T15:31:41;24.65;;;10.10;;
13051;SDS011;6592;47.484;9.726;2023-02-15T15:34:19;23.40;;;9.38;;
13051;SDS011;6592;47.484;9.726;2023-02-15T15:40:24;28.33;;;9.73;;
13051;SDS011;6592;47.484;9.726;2023-02-15T15:43:19;22.73;;;8.85;;
13051;SDS011;6592;47.484;9.726;2023-02-15T15:49:23;24.83;;;9.60;;
13051;SDS011;6592;47.484;9.726;2023-02-15T15:51:55;26.90;;;9.95;;
13051;SDS011;6592;47.484;9.726;2023-02-15T15:54:28;26.23;;;9.60;;
13051;SDS011;6592;47.484;9.726;2023-02-15T15:56:58;25.48;;;10.55;;
13051;SDS011;6592;47.484;9.726;2023-02-15T15:59:30;30.40;;;10.52;;
13051;SDS011;6592;47.484;9.726;2023-02-15T16:02:04;24.05;;;9.75;;
13051;SDS011;6592;47.484;9.726;2023-02-15T16:04:34;29.10;;;10.98;;
13051;SDS011;6592;47.484;9.726;2023-02-15T16:07:13;28.70;;;10.48;;
13051;SDS011;6592;47.484;9.726;2023-02-15T16:09:55;29.55;;;10.75;;